• Join FlightAware (Why Join?)
  • Login
  • US Flag 
01:09PM EST


 

Airport Tracker/Info


-or-


 

Live Flight TrackerFlight Track Log ✈ CHQ5098 ✈ 19-Apr-2013 ✈ KORD - KGRB

Flight Track Log - Related Links

Times and Time Zones

All times are in EDT time to prevent confusion due to time zone crossing. See the CHQ5098 flight status page for this flight to view local times or setup timezone preferences in your user account.

Time Position Orientation Groundspeed Altitude Reporting Facility
EDT Latitude Longitude Course Direction KTS MPH feet Rate Location/Type
10:36PM 42.0333 -87.9667 352° North 175 201 3,900  Level Chicago TRACON
10:37PM 42.1918 -87.9709 340° North  Level FlightAware Approximate
10:37PM 42.0667 -88.0167 312° West 206 237 5,000  Level Chicago TRACON
10:38PM 42.2668 -87.9959 350° North  Level FlightAware Approximate
10:39PM 42.3431 -88.0149 350° North  Level FlightAware Approximate
10:39PM 42.1833 -88.0383 352° North 235 270 6,700  Level Chicago Center
10:40PM 42.4161 -88.0497 340° North  Level FlightAware Approximate
10:40PM 42.2486 -88.0325 North 236 272 9,400  Level Chicago Center
10:41PM 42.4970 -88.0661 352° North  Level FlightAware Approximate
10:41PM 42.3208 -88.0250 North 257 296 11,700  Level Chicago Center
10:42PM 42.4017 -88.0158 North 278 320 14,000 2,040 Climbing Chicago Center
10:43PM 42.4831 -88.0081 North 292 336 15,900 1,800 Climbing Chicago Center
10:44PM 42.5694 -88.0100 359° North 307 353 17,700 1,740 Climbing Chicago Center
10:45PM 42.6586 -88.0197 355° North 319 367 19,500 1,020 Climbing Chicago Center
10:46PM 42.7714 -88.0253 358° North 351 404 19,800 -120 Climbing Chicago Center
10:47PM 42.8728 -88.0317 357° North 362 417 19,300 -720 Descending Chicago Center
10:48PM 42.9714 -88.0372 358° North 356 410 18,400 -960 Descending Chicago Center
10:49PM 43.0714 -88.0436 357° North 359 413 17,400 -1,020 Descending Chicago Center
10:50PM 43.1725 -88.0494 358° North 363 418 16,400 -1,020 Descending Chicago Center
10:51PM 43.2753 -88.0550 358° North 370 426 15,400 -1,020 Descending Chicago Center
10:52PM 43.3769 -88.0608 358° North 368 423 14,400 -1,020 Descending Chicago Center
10:53PM 43.4744 -88.0683 357° North 359 413 13,400 -720 Descending Chicago Center
10:54PM 43.5833 -88.0744 358° North 342 394 13,000 -300 Descending Chicago Center
10:55PM 43.6758 -88.0806 357° North 335 386 12,900 -240 Descending Chicago Center
10:56PM 43.7692 -88.0875 357° North 336 387 12,600 -660 Descending Chicago Center
10:57PM 43.8558 -88.0936 357° North 319 367 11,600 -1,140 Descending Chicago Center
10:58PM 43.9247 -88.0956 359° North 261 300 10,300 -1,560 Descending Chicago Center
10:59PM 43.9900 -88.1000 357° North 241 277 8,500 -1,800 Descending Minneapolis Center
11:00PM 44.0528 -88.1047 357° North 231 266 6,700 -1,740 Descending Minneapolis Center
11:01PM 44.1172 -88.1081 358° North 230 265 5,000 -1,560 Descending Minneapolis Center
11:02PM 44.1769 -88.1125 357° North 222 255 3,600 -1,020 Descending Minneapolis Center
11:03PM 44.2456 -88.1178 357° North 216 249 3,000 -300 Descending Minneapolis Center
11:04PM 44.3011 -88.1211 358° North 208 239 3,000  Level Minneapolis Center